createdAt,value
2022-10-18T00:00:17.332Z,72.82
2022-10-18T00:02:47.402Z,72.97
2022-10-18T00:05:18.921Z,72.94
2022-10-18T00:07:48.951Z,72.78
2022-10-18T00:10:18.960Z,72.90
2022-10-18T00:12:51.533Z,73.00
2022-10-18T00:15:24.964Z,73.06
2022-10-18T00:17:55.305Z,73.30
2022-10-18T00:20:25.625Z,73.32
2022-10-18T00:22:55.690Z,72.94
2022-10-18T00:25:25.762Z,73.42
2022-10-18T00:27:58.386Z,73.45
2022-10-18T00:30:28.523Z,73.72
2022-10-18T00:32:58.511Z,73.87
2022-10-18T00:35:29.017Z,73.95
2022-10-18T00:37:59.197Z,73.91
2022-10-18T00:40:29.188Z,73.96
2022-10-18T00:43:01.885Z,73.96
2022-10-18T00:45:32.060Z,73.73
2022-10-18T00:48:05.448Z,74.20
2022-10-18T00:50:37.566Z,74.62
2022-10-18T00:53:11.853Z,74.16
2022-10-18T00:55:42.089Z,74.50
2022-10-18T00:58:16.050Z,74.33
2022-10-18T01:00:46.037Z,74.73
2022-10-18T01:03:16.174Z,74.68
2022-10-18T01:05:49.585Z,74.91
2022-10-18T01:08:32.545Z,74.99
2022-10-18T01:11:16.077Z,75.18
2022-10-18T01:14:00.953Z,74.94
2022-10-18T01:16:39.493Z,75.41
2022-10-18T01:19:24.420Z,75.00
2022-10-18T01:21:58.934Z,75.42
2022-10-18T01:24:53.760Z,75.63
2022-10-18T01:27:49.990Z,75.49
2022-10-18T01:30:51.574Z,75.37
2022-10-18T01:33:31.187Z,75.65
2022-10-18T01:36:06.381Z,75.58
2022-10-18T01:38:39.743Z,75.63
2022-10-18T01:41:15.594Z,75.42
2022-10-18T01:43:48.239Z,75.59
2022-10-18T01:46:24.828Z,75.79
2022-10-18T01:48:56.501Z,76.02
2022-10-18T01:51:29.281Z,75.69
2022-10-18T01:54:00.154Z,76.16
2022-10-18T01:56:39.998Z,76.15
2022-10-18T01:59:33.511Z,75.98
2022-10-18T02:02:18.608Z,76.15
2022-10-18T02:04:54.532Z,76.14
2022-10-18T02:07:32.524Z,76.29
2022-10-18T02:10:09.927Z,76.20
2022-10-18T02:12:43.285Z,76.44
2022-10-18T02:15:17.489Z,76.69
2022-10-18T02:17:53.562Z,76.28
2022-10-18T02:20:29.144Z,76.64
2022-10-18T02:23:01.299Z,76.64
2022-10-18T02:25:34.574Z,76.22
2022-10-18T02:28:05.239Z,76.50
2022-10-18T02:30:43.908Z,76.46
2022-10-18T02:33:22.373Z,76.51
2022-10-18T02:35:58.492Z,76.30
2022-10-18T02:38:30.441Z,76.49
2022-10-18T02:41:01.085Z,76.24
2022-10-18T02:43:31.175Z,76.85
2022-10-18T02:46:01.549Z,76.71
2022-10-18T02:48:34.130Z,76.43
2022-10-18T02:51:04.348Z,76.77
2022-10-18T02:53:34.294Z,76.81
2022-10-18T02:56:04.315Z,76.85
2022-10-18T02:58:34.357Z,76.77
2022-10-18T03:01:04.994Z,77.07
2022-10-18T03:03:37.682Z,77.13
2022-10-18T03:06:07.801Z,77.04
2022-10-18T03:08:39.294Z,76.97
2022-10-18T03:11:09.849Z,76.77
2022-10-18T03:13:39.911Z,76.78
2022-10-18T03:16:09.929Z,77.17
2022-10-18T03:18:42.888Z,77.35
2022-10-18T03:21:12.943Z,77.30
2022-10-18T03:23:42.914Z,77.17
2022-10-18T03:26:13.370Z,77.13
2022-10-18T03:28:43.486Z,76.73
2022-10-18T03:31:13.626Z,77.10
2022-10-18T03:33:46.352Z,76.81
2022-10-18T03:36:16.342Z,77.09
2022-10-18T03:38:46.344Z,77.05
2022-10-18T03:41:16.284Z,77.16
2022-10-18T03:43:46.255Z,76.95
2022-10-18T03:46:16.509Z,77.18
2022-10-18T03:48:49.217Z,77.06
2022-10-18T03:51:19.287Z,77.29
2022-10-18T03:53:49.381Z,77.29
2022-10-18T03:56:19.378Z,77.61
2022-10-18T03:58:49.391Z,77.69
2022-10-18T04:01:19.619Z,77.55
2022-10-18T04:03:52.257Z,77.59
2022-10-18T04:06:22.291Z,77.34
2022-10-18T04:08:52.349Z,77.63
2022-10-18T04:11:22.307Z,77.77
2022-10-18T04:13:52.809Z,77.41
2022-10-18T04:16:25.018Z,77.76
2022-10-18T04:19:00.569Z,77.84
2022-10-18T04:21:30.516Z,77.93
2022-10-18T04:24:01.237Z,77.49
2022-10-18T04:26:31.195Z,77.90
2022-10-18T04:29:01.374Z,77.94
2022-10-18T04:31:31.458Z,77.64
2022-10-18T04:34:04.631Z,77.87
2022-10-18T04:36:34.945Z,77.94
2022-10-18T04:39:04.916Z,77.91
2022-10-18T04:41:34.869Z,77.84
2022-10-18T04:44:04.965Z,77.82
2022-10-18T04:46:34.933Z,77.81
2022-10-18T04:49:09.870Z,77.85
2022-10-18T04:51:40.023Z,77.91
2022-10-18T04:54:10.116Z,78.17
2022-10-18T04:56:40.745Z,77.93
2022-10-18T04:59:10.705Z,77.91
2022-10-18T05:01:40.750Z,78.14
2022-10-18T05:04:13.394Z,78.29
2022-10-18T05:06:43.476Z,77.87
2022-10-18T05:09:13.554Z,78.24
2022-10-18T05:11:43.785Z,77.93
2022-10-18T05:14:13.817Z,78.11
2022-10-18T05:16:44.081Z,78.14
2022-10-18T05:19:16.712Z,78.05
2022-10-18T05:21:47.893Z,77.89
2022-10-18T05:24:17.886Z,77.59
2022-10-18T05:26:47.869Z,77.85
2022-10-18T05:29:18.157Z,77.42
2022-10-18T05:31:48.233Z,77.21
2022-10-18T05:34:22.009Z,77.12
2022-10-18T05:36:52.040Z,77.00
2022-10-18T05:39:22.061Z,76.81
2022-10-18T05:41:52.225Z,76.11
2022-10-18T05:44:22.486Z,76.33
2022-10-18T05:46:52.481Z,75.78
2022-10-18T05:49:25.156Z,75.28
2022-10-18T05:51:55.469Z,75.24
2022-10-18T05:54:25.432Z,75.00
2022-10-18T05:56:55.483Z,74.08
2022-10-18T05:59:25.789Z,73.69
2022-10-18T06:01:55.829Z,72.80
2022-10-18T06:04:28.461Z,71.50
2022-10-18T06:06:58.449Z,69.72
2022-10-18T06:09:28.849Z,69.80
2022-10-18T06:11:58.985Z,69.01
2022-10-18T06:14:29.059Z,66.59
2022-10-18T06:16:59.325Z,65.33
2022-10-18T06:19:31.949Z,64.59
2022-10-18T06:22:02.002Z,63.66
2022-10-18T06:24:31.954Z,62.71
2022-10-18T06:29:54.648Z,61.52
2022-10-18T06:32:24.677Z,61.45
2022-10-18T06:35:00.201Z,60.94
2022-10-18T06:37:33.231Z,60.17
2022-10-18T06:40:05.231Z,58.92
2022-10-18T06:42:35.567Z,59.40
2022-10-18T06:45:09.987Z,58.00
2022-10-18T06:47:39.947Z,58.33
2022-10-18T06:50:13.248Z,57.55
2022-10-18T06:52:43.602Z,57.83
2022-10-18T06:55:13.585Z,57.47
2022-10-18T06:57:43.686Z,56.46
2022-10-18T07:00:15.484Z,56.19
2022-10-18T07:02:45.467Z,55.07
2022-10-18T07:05:18.562Z,54.95
2022-10-18T07:07:50.687Z,54.26
2022-10-18T07:10:23.568Z,53.51
2022-10-18T07:13:07.964Z,52.92
2022-10-18T07:15:43.933Z,52.02
2022-10-18T07:18:14.074Z,50.25
2022-10-18T07:20:46.652Z,50.07
2022-10-18T07:23:21.133Z,50.04
2022-10-18T07:25:51.064Z,49.59
2022-10-18T07:28:21.298Z,48.65
2022-10-18T07:30:51.621Z,49.06
2022-10-18T07:33:21.594Z,48.93
2022-10-18T07:35:54.165Z,49.14
2022-10-18T07:38:24.166Z,47.78
2022-10-18T07:40:59.866Z,48.14
2022-10-18T07:43:30.298Z,46.97
2022-10-18T07:46:01.966Z,46.32
2022-10-18T07:48:32.473Z,46.13
2022-10-18T07:51:05.626Z,46.69
2022-10-18T07:53:36.602Z,46.96
2022-10-18T07:56:09.778Z,46.73
2022-10-18T07:58:40.364Z,46.60
2022-10-18T08:01:11.710Z,45.77
2022-10-18T08:03:41.980Z,46.16
2022-10-18T08:06:18.177Z,45.28
2022-10-18T08:08:49.055Z,43.99
2022-10-18T08:11:21.444Z,44.34
2022-10-18T08:13:52.713Z,43.43
2022-10-18T08:16:24.313Z,43.79
2022-10-18T08:18:55.324Z,43.74
2022-10-18T08:21:29.409Z,44.00
2022-10-18T08:23:59.392Z,43.15
2022-10-18T08:26:29.369Z,43.42
2022-10-18T08:29:10.657Z,44.14
2022-10-18T08:31:47.892Z,43.80
2022-10-18T08:34:19.830Z,43.70
2022-10-18T08:36:52.618Z,43.41
2022-10-18T08:39:23.652Z,43.75
2022-10-18T08:42:15.722Z,44.42
2022-10-18T08:44:48.869Z,44.17
2022-10-18T08:47:22.677Z,44.29
2022-10-18T08:49:57.022Z,43.59
2022-10-18T08:52:36.412Z,43.97
2022-10-18T08:55:14.359Z,44.62
2022-10-18T08:57:44.645Z,45.91
2022-10-18T09:00:19.358Z,45.15
2022-10-18T09:03:10.610Z,45.47
2022-10-18T09:05:53.313Z,45.31
2022-10-18T09:08:58.648Z,44.55
2022-10-18T09:11:46.064Z,43.90
2022-10-18T09:14:31.789Z,44.59
2022-10-18T09:17:15.843Z,43.88
2022-10-18T09:19:55.996Z,41.29
2022-10-18T09:22:34.961Z,40.91
2022-10-18T09:25:19.101Z,40.76
2022-10-18T09:27:56.153Z,41.26
2022-10-18T09:30:42.601Z,41.54
2022-10-18T09:33:31.413Z,40.56
2022-10-18T09:36:04.881Z,40.20
2022-10-18T09:38:40.129Z,40.93
2022-10-18T09:41:18.921Z,40.55
2022-10-18T09:43:59.197Z,41.20
2022-10-18T09:46:33.330Z,40.78
2022-10-18T09:49:07.489Z,39.96
2022-10-18T09:51:40.237Z,40.28
2022-10-18T09:54:23.118Z,39.76
2022-10-18T09:57:01.130Z,40.18
2022-10-18T09:59:38.491Z,39.44
2022-10-18T10:02:09.534Z,40.76
2022-10-18T10:04:39.638Z,41.65
2022-10-18T10:07:12.379Z,41.74
2022-10-18T10:09:47.264Z,40.98
2022-10-18T10:12:34.528Z,40.66
2022-10-18T10:15:13.193Z,40.50
2022-10-18T10:17:43.421Z,40.39
2022-10-18T10:20:21.684Z,39.69
2022-10-18T10:22:53.787Z,38.38
2022-10-18T10:25:28.795Z,38.59
2022-10-18T10:28:06.577Z,38.62
2022-10-18T10:30:38.671Z,39.58
2022-10-18T10:33:09.547Z,39.57
2022-10-18T10:35:56.591Z,38.13
2022-10-18T10:38:28.321Z,39.87
2022-10-18T10:40:58.947Z,39.53
2022-10-18T10:43:39.618Z,39.39
2022-10-18T10:46:12.709Z,38.77
2022-10-18T10:48:49.441Z,39.69
2022-10-18T10:51:31.054Z,39.23
2022-10-18T10:54:04.454Z,38.67
2022-10-18T10:56:36.824Z,39.23
2022-10-18T10:59:17.314Z,39.11
2022-10-18T11:01:49.912Z,38.55
2022-10-18T11:04:29.266Z,37.58
2022-10-18T11:07:06.926Z,37.34
2022-10-18T11:09:46.570Z,38.25
2022-10-18T11:12:26.818Z,37.54
2022-10-18T11:15:10.084Z,37.86
2022-10-18T11:17:45.710Z,37.59
2022-10-18T11:20:24.318Z,37.95
2022-10-18T11:23:03.473Z,37.62
2022-10-18T11:25:51.491Z,37.30
2022-10-18T11:28:31.550Z,37.58
2022-10-18T11:31:15.000Z,38.45
2022-10-18T11:34:08.635Z,37.40
2022-10-18T11:37:15.862Z,37.03
2022-10-18T11:40:01.541Z,37.38
2022-10-18T11:42:40.089Z,38.54
2022-10-18T11:48:49.505Z,38.29
2022-10-18T11:51:38.688Z,37.33
2022-10-18T11:54:32.815Z,37.78
2022-10-18T11:57:16.433Z,37.61
2022-10-18T11:59:58.673Z,37.21
2022-10-18T12:02:57.263Z,37.31
2022-10-18T12:05:31.880Z,37.92
2022-10-18T12:08:05.568Z,37.15
2022-10-18T12:10:52.688Z,37.56
2022-10-18T12:13:33.537Z,37.40
2022-10-18T12:16:07.032Z,37.17
2022-10-18T12:18:46.131Z,37.87
2022-10-18T12:21:25.467Z,37.10
2022-10-18T12:23:58.407Z,38.00
2022-10-18T12:26:32.448Z,37.79
2022-10-18T12:29:16.784Z,38.04
2022-10-18T12:31:51.115Z,37.91
2022-10-18T12:38:03.692Z,38.15
2022-10-18T12:40:38.978Z,38.60
2022-10-18T12:43:14.925Z,38.04
2022-10-18T12:45:52.719Z,37.77
2022-10-18T12:48:42.717Z,38.40
2022-10-18T12:51:17.861Z,37.63
2022-10-18T12:53:57.117Z,37.13
2022-10-18T12:56:42.029Z,37.62
2022-10-18T12:59:54.022Z,36.87
2022-10-18T13:02:34.267Z,37.23
2022-10-18T13:05:53.556Z,36.83
2022-10-18T13:08:42.162Z,37.08
2022-10-18T13:11:39.010Z,37.47
2022-10-18T13:14:48.188Z,36.42
2022-10-18T13:17:36.557Z,37.68
2022-10-18T13:20:27.307Z,37.43
2022-10-18T13:23:28.240Z,36.33
2022-10-18T13:26:15.794Z,36.38
2022-10-18T13:28:56.055Z,37.20
2022-10-18T13:31:33.645Z,36.73
2022-10-18T13:34:30.916Z,36.25
2022-10-18T13:37:05.886Z,36.73
2022-10-18T13:39:36.588Z,36.93
2022-10-18T13:42:23.699Z,36.53
2022-10-18T13:44:56.385Z,36.43
2022-10-18T13:47:37.468Z,36.37
2022-10-18T13:50:30.623Z,36.76
2022-10-18T13:53:30.495Z,37.08
2022-10-18T13:56:22.822Z,36.99
2022-10-18T13:59:14.446Z,36.50
2022-10-18T14:02:02.880Z,37.69
2022-10-18T14:05:23.090Z,37.83
2022-10-18T14:07:53.879Z,37.92
2022-10-18T14:10:43.860Z,37.68
2022-10-18T14:13:21.474Z,38.75
2022-10-18T14:15:55.574Z,38.19
2022-10-18T14:18:32.027Z,38.71
2022-10-18T14:21:13.729Z,38.40
2022-10-18T14:23:47.580Z,39.11
2022-10-18T14:26:19.662Z,39.49
2022-10-18T14:29:05.863Z,39.15
2022-10-18T14:31:38.990Z,39.39
2022-10-18T14:34:20.625Z,39.69
2022-10-18T14:36:51.993Z,38.88
2022-10-18T14:39:25.085Z,38.78
2022-10-18T14:41:56.609Z,38.75
2022-10-18T14:44:30.322Z,38.95
2022-10-18T14:47:05.434Z,39.69
2022-10-18T14:49:45.783Z,39.97
2022-10-18T14:52:18.832Z,40.73
2022-10-18T14:54:49.449Z,41.21
2022-10-18T14:57:22.541Z,41.48
2022-10-18T14:59:58.194Z,42.27
2022-10-18T15:02:30.042Z,42.34
2022-10-18T15:05:09.286Z,42.41
2022-10-18T15:07:39.812Z,42.81
2022-10-18T15:10:19.764Z,44.25
2022-10-18T15:13:08.707Z,45.00
2022-10-18T15:15:39.454Z,45.99
2022-10-18T15:18:10.998Z,46.52
2022-10-18T15:20:43.601Z,47.84
2022-10-18T15:23:26.466Z,47.72
2022-10-18T15:26:06.456Z,48.57
2022-10-18T15:28:39.755Z,49.30
2022-10-18T15:31:28.316Z,49.77
2022-10-18T15:34:11.655Z,50.50
2022-10-18T15:39:34.659Z,52.66
2022-10-18T15:42:05.499Z,52.98
2022-10-18T15:44:36.951Z,53.63
2022-10-18T15:47:21.851Z,54.53
2022-10-18T15:49:55.648Z,55.01
2022-10-18T15:52:38.789Z,55.33
2022-10-18T15:55:39.175Z,55.65
2022-10-18T15:58:14.350Z,55.67
2022-10-18T16:00:45.500Z,55.46
2022-10-18T16:03:16.174Z,55.43
2022-10-18T16:05:46.698Z,56.19
2022-10-18T16:08:28.902Z,56.65
2022-10-18T16:10:59.683Z,56.90
2022-10-18T16:13:31.358Z,57.66
2022-10-18T16:16:02.374Z,57.92
2022-10-18T16:18:32.422Z,58.27
2022-10-18T16:21:02.502Z,58.53
2022-10-18T16:23:35.235Z,58.24
2022-10-18T16:26:05.329Z,58.73
2022-10-18T16:28:36.008Z,59.49
2022-10-18T16:31:06.825Z,59.43
2022-10-18T16:33:37.115Z,59.54
2022-10-18T16:36:07.665Z,59.82
2022-10-18T16:38:40.337Z,60.30
2022-10-18T16:41:11.639Z,60.20
2022-10-18T16:43:42.255Z,60.20
2022-10-18T16:46:17.787Z,60.65
2022-10-18T16:48:48.997Z,60.60
2022-10-18T16:51:19.766Z,61.52
2022-10-18T16:53:53.525Z,61.64
2022-10-18T16:56:33.195Z,61.91
2022-10-18T16:59:03.914Z,62.07
2022-10-18T17:01:34.047Z,62.50
2022-10-18T17:04:04.106Z,62.71
2022-10-18T17:06:36.373Z,62.78
2022-10-18T17:09:09.326Z,62.73
2022-10-18T17:11:39.368Z,62.63
2022-10-18T17:14:09.374Z,61.83
2022-10-18T17:16:40.287Z,62.22
2022-10-18T17:19:13.471Z,62.10
2022-10-18T17:21:43.826Z,62.15
2022-10-18T17:24:16.555Z,62.01
2022-10-18T17:26:52.060Z,62.75
2022-10-18T17:29:23.021Z,63.08
2022-10-18T17:31:53.259Z,63.78
2022-10-18T17:34:26.349Z,63.82
2022-10-18T17:36:56.629Z,63.82
2022-10-18T17:39:35.995Z,64.29
2022-10-18T17:42:06.136Z,64.51
2022-10-18T17:44:43.364Z,64.33
2022-10-18T17:47:13.405Z,64.51
2022-10-18T17:49:45.078Z,63.81
2022-10-18T17:52:19.946Z,63.84
2022-10-18T17:54:52.602Z,63.85
2022-10-18T17:57:22.706Z,63.58
2022-10-18T17:59:54.948Z,63.63
2022-10-18T18:02:25.198Z,63.14
2022-10-18T18:04:57.481Z,63.68
2022-10-18T18:07:27.580Z,63.63
2022-10-18T18:10:00.333Z,63.50
2022-10-18T18:12:30.534Z,63.58
2022-10-18T18:15:00.666Z,64.19
2022-10-18T18:17:34.338Z,64.52
2022-10-18T18:20:10.907Z,64.57
2022-10-18T18:22:42.676Z,64.89
2022-10-18T18:25:15.972Z,64.75
2022-10-18T18:27:46.198Z,65.19
2022-10-18T18:30:19.397Z,65.22
2022-10-18T18:32:49.387Z,64.83
2022-10-18T18:35:19.493Z,64.94
2022-10-18T18:37:53.247Z,64.85
2022-10-18T18:40:26.362Z,64.98
2022-10-18T18:43:07.147Z,65.33
2022-10-18T18:45:53.394Z,65.30
2022-10-18T18:48:23.420Z,65.23
2022-10-18T18:50:53.504Z,65.04
2022-10-18T18:53:27.215Z,65.30
2022-10-18T18:56:08.247Z,65.65
2022-10-18T18:58:40.204Z,66.08
2022-10-18T19:01:12.215Z,66.14
2022-10-18T19:03:43.341Z,65.88
2022-10-18T19:06:15.889Z,66.06
2022-10-18T19:08:47.586Z,66.02
2022-10-18T19:11:22.001Z,66.03
2022-10-18T19:13:52.617Z,65.73
2022-10-18T19:16:26.005Z,65.32
2022-10-18T19:19:01.894Z,65.60
2022-10-18T19:21:34.637Z,65.74
2022-10-18T19:24:08.512Z,65.56
2022-10-18T19:26:44.904Z,65.28
2022-10-18T19:29:17.599Z,65.80
2022-10-18T19:31:48.213Z,65.76
2022-10-18T19:34:19.919Z,65.49
2022-10-18T19:36:51.246Z,65.27
2022-10-18T19:39:23.271Z,65.45
2022-10-18T19:41:57.963Z,65.13
2022-10-18T19:44:30.940Z,65.76
2022-10-18T19:47:01.381Z,65.60
2022-10-18T19:49:31.896Z,65.67
2022-10-18T19:52:02.155Z,66.06
2022-10-18T19:54:33.873Z,65.84
2022-10-18T19:57:07.110Z,66.03
2022-10-18T19:59:37.724Z,65.82
2022-10-18T20:02:07.930Z,66.02
2022-10-18T20:04:38.359Z,65.82
2022-10-18T20:07:08.470Z,66.36
2022-10-18T20:09:40.442Z,66.33
2022-10-18T20:12:13.116Z,66.46
2022-10-18T20:14:43.150Z,66.30
2022-10-18T20:17:13.781Z,66.08
2022-10-18T20:19:43.971Z,66.39
2022-10-18T20:22:14.136Z,66.45
2022-10-18T20:24:44.126Z,66.65
2022-10-18T20:27:16.671Z,66.26
2022-10-18T20:29:54.197Z,66.68
2022-10-18T20:32:24.602Z,66.38
2022-10-18T20:34:54.697Z,66.42
2022-10-18T20:37:24.741Z,66.44
2022-10-18T20:39:55.178Z,66.62
2022-10-18T20:42:27.906Z,66.62
2022-10-18T20:44:57.997Z,66.65
2022-10-18T20:47:28.078Z,66.76
2022-10-18T20:49:59.389Z,66.96
2022-10-18T20:52:29.933Z,66.70
2022-10-18T20:54:59.959Z,66.60
2022-10-18T20:57:36.522Z,66.50
2022-10-18T21:00:13.021Z,65.93
2022-10-18T21:02:43.034Z,65.85
2022-10-18T21:05:13.030Z,66.10
2022-10-18T21:07:43.354Z,66.74
2022-10-18T21:10:14.812Z,66.69
2022-10-18T21:12:49.728Z,66.70
2022-10-18T21:15:19.861Z,66.84
2022-10-18T21:17:53.191Z,67.02
2022-10-18T21:20:25.213Z,66.78
2022-10-18T21:22:57.136Z,67.04
2022-10-18T21:25:27.225Z,67.54
2022-10-18T21:27:59.846Z,67.89
2022-10-18T21:30:30.457Z,68.14
2022-10-18T21:33:00.453Z,68.09
2022-10-18T21:35:30.403Z,68.12
2022-10-18T21:38:00.376Z,68.27
2022-10-18T21:40:30.519Z,68.28
2022-10-18T21:43:03.082Z,68.39
2022-10-18T21:45:33.068Z,68.18
2022-10-18T21:48:03.109Z,68.37
2022-10-18T21:50:33.142Z,67.94
2022-10-18T21:53:03.078Z,68.12
2022-10-18T21:55:33.101Z,67.96
2022-10-18T21:58:06.533Z,67.55
2022-10-18T22:00:36.828Z,67.76
2022-10-18T22:03:10.459Z,67.52
2022-10-18T22:05:40.750Z,67.65
2022-10-18T22:08:10.989Z,67.28
2022-10-18T22:10:41.037Z,67.71
2022-10-18T22:13:13.698Z,67.54
2022-10-18T22:15:43.724Z,68.00
2022-10-18T22:18:13.741Z,67.66
2022-10-18T22:20:58.529Z,68.08
2022-10-18T22:23:34.805Z,68.35
2022-10-18T22:26:07.679Z,67.55
2022-10-18T22:28:41.063Z,67.71
2022-10-18T22:31:17.213Z,68.11
2022-10-18T22:33:48.847Z,67.89
2022-10-18T22:36:18.802Z,68.10
2022-10-18T22:38:48.816Z,67.85
2022-10-18T22:41:19.184Z,68.10
2022-10-18T22:43:53.198Z,68.11
2022-10-18T22:46:23.295Z,68.17
2022-10-18T22:48:53.330Z,67.85
2022-10-18T22:51:23.643Z,68.05
2022-10-18T22:53:53.684Z,68.20
2022-10-18T22:56:25.048Z,67.93
2022-10-18T22:58:58.238Z,67.75
2022-10-18T23:01:28.270Z,67.75
2022-10-18T23:03:59.522Z,68.06
2022-10-18T23:06:30.852Z,67.53
2022-10-18T23:09:05.000Z,68.03
2022-10-18T23:11:37.069Z,67.42
2022-10-18T23:14:10.249Z,67.01
2022-10-18T23:16:40.299Z,66.69
2022-10-18T23:19:10.538Z,66.90
2022-10-18T23:21:40.553Z,67.25
2022-10-18T23:24:10.532Z,66.90
2022-10-18T23:26:40.565Z,66.81
2022-10-18T23:29:13.145Z,66.11
2022-10-18T23:31:43.274Z,66.40
2022-10-18T23:34:13.377Z,66.11
2022-10-18T23:39:14.531Z,66.33
2022-10-18T23:41:44.612Z,66.39
2022-10-18T23:44:17.569Z,66.04
2022-10-18T23:46:47.601Z,66.03
2022-10-18T23:49:17.967Z,66.27
2022-10-18T23:51:48.095Z,66.27
2022-10-18T23:54:18.059Z,66.34
2022-10-18T23:56:50.991Z,66.44
2022-10-18T23:59:26.935Z,66.45
